sensor_id;sensor_type;location;lat;lon;timestamp;P1;durP1;ratioP1;P2;durP2;ratioP2
17251;SDS011;8742;51.716;8.790;2022-11-04T00:01:40;1.10;;;1.00;;
17251;SDS011;8742;51.716;8.790;2022-11-04T00:04:08;2.47;;;1.20;;
17251;SDS011;8742;51.716;8.790;2022-11-04T00:06:37;1.33;;;1.23;;
17251;SDS011;8742;51.716;8.790;2022-11-04T00:09:05;1.33;;;1.20;;
17251;SDS011;8742;51.716;8.790;2022-11-04T00:11:34;2.70;;;1.20;;
17251;SDS011;8742;51.716;8.790;2022-11-04T00:14:19;1.20;;;1.10;;
17251;SDS011;8742;51.716;8.790;2022-11-04T00:16:46;5.20;;;1.40;;
17251;SDS011;8742;51.716;8.790;2022-11-04T00:19:30;1.83;;;1.30;;
17251;SDS011;8742;51.716;8.790;2022-11-04T00:22:19;2.03;;;1.00;;
17251;SDS011;8742;51.716;8.790;2022-11-04T00:25:04;0.93;;;0.90;;
17251;SDS011;8742;51.716;8.790;2022-11-04T00:27:48;1.27;;;1.17;;
17251;SDS011;8742;51.716;8.790;2022-11-04T00:30:33;1.40;;;0.87;;
17251;SDS011;8742;51.716;8.790;2022-11-04T00:32:59;1.50;;;1.10;;
17251;SDS011;8742;51.716;8.790;2022-11-04T00:35:47;0.90;;;0.90;;
17251;SDS011;8742;51.716;8.790;2022-11-04T00:38:15;1.73;;;1.00;;
17251;SDS011;8742;51.716;8.790;2022-11-04T00:40:42;1.90;;;0.90;;
17251;SDS011;8742;51.716;8.790;2022-11-04T00:43:09;2.07;;;0.80;;
17251;SDS011;8742;51.716;8.790;2022-11-04T00:45:36;0.60;;;0.60;;
17251;SDS011;8742;51.716;8.790;2022-11-04T00:48:05;1.30;;;0.90;;
17251;SDS011;8742;51.716;8.790;2022-11-04T00:50:31;1.33;;;0.93;;
17251;SDS011;8742;51.716;8.790;2022-11-04T00:52:58;1.73;;;1.07;;
17251;SDS011;8742;51.716;8.790;2022-11-04T00:55:27;0.77;;;0.67;;
17251;SDS011;8742;51.716;8.790;2022-11-04T00:57:54;0.73;;;0.73;;
17251;SDS011;8742;51.716;8.790;2022-11-04T01:00:23;1.80;;;0.93;;
17251;SDS011;8742;51.716;8.790;2022-11-04T01:02:50;1.37;;;1.00;;
17251;SDS011;8742;51.716;8.790;2022-11-04T01:05:17;1.03;;;1.00;;
17251;SDS011;8742;51.716;8.790;2022-11-04T01:07:44;2.70;;;0.80;;
17251;SDS011;8742;51.716;8.790;2022-11-04T01:10:10;0.70;;;0.70;;
17251;SDS011;8742;51.716;8.790;2022-11-04T01:12:39;1.07;;;0.87;;
17251;SDS011;8742;51.716;8.790;2022-11-04T01:15:06;0.80;;;0.67;;
17251;SDS011;8742;51.716;8.790;2022-11-04T01:17:33;1.60;;;1.20;;
17251;SDS011;8742;51.716;8.790;2022-11-04T01:20:00;1.20;;;0.97;;
17251;SDS011;8742;51.716;8.790;2022-11-04T01:22:27;0.93;;;0.77;;
17251;SDS011;8742;51.716;8.790;2022-11-04T01:24:54;1.03;;;0.80;;
17251;SDS011;8742;51.716;8.790;2022-11-04T01:27:21;0.67;;;0.67;;
17251;SDS011;8742;51.716;8.790;2022-11-04T01:29:49;0.80;;;0.80;;
17251;SDS011;8742;51.716;8.790;2022-11-04T01:32:16;1.13;;;1.03;;
17251;SDS011;8742;51.716;8.790;2022-11-04T01:34:42;2.37;;;1.30;;
17251;SDS011;8742;51.716;8.790;2022-11-04T01:37:11;3.60;;;1.20;;
17251;SDS011;8742;51.716;8.790;2022-11-04T01:39:37;1.47;;;1.00;;
17251;SDS011;8742;51.716;8.790;2022-11-04T01:42:04;0.73;;;0.73;;
17251;SDS011;8742;51.716;8.790;2022-11-04T01:44:51;0.73;;;0.73;;
17251;SDS011;8742;51.716;8.790;2022-11-04T01:47:20;1.27;;;1.00;;
17251;SDS011;8742;51.716;8.790;2022-11-04T01:49:55;2.73;;;1.10;;
17251;SDS011;8742;51.716;8.790;2022-11-04T01:52:27;0.90;;;0.90;;
17251;SDS011;8742;51.716;8.790;2022-11-04T01:55:00;1.23;;;1.10;;
17251;SDS011;8742;51.716;8.790;2022-11-04T01:57:32;2.10;;;1.30;;
17251;SDS011;8742;51.716;8.790;2022-11-04T02:00:03;2.03;;;1.37;;
17251;SDS011;8742;51.716;8.790;2022-11-04T02:02:33;1.00;;;0.90;;
17251;SDS011;8742;51.716;8.790;2022-11-04T02:05:04;1.30;;;1.20;;
17251;SDS011;8742;51.716;8.790;2022-11-04T02:07:31;2.93;;;1.40;;
17251;SDS011;8742;51.716;8.790;2022-11-04T02:09:59;1.00;;;0.90;;
17251;SDS011;8742;51.716;8.790;2022-11-04T02:12:26;3.97;;;1.67;;
17251;SDS011;8742;51.716;8.790;2022-11-04T02:15:12;1.13;;;1.03;;
17251;SDS011;8742;51.716;8.790;2022-11-04T02:17:43;1.43;;;1.17;;
17251;SDS011;8742;51.716;8.790;2022-11-04T02:20:26;2.23;;;1.23;;
17251;SDS011;8742;51.716;8.790;2022-11-04T02:26:25;2.70;;;1.50;;
17251;SDS011;8742;51.716;8.790;2022-11-04T02:29:18;1.80;;;1.60;;
17251;SDS011;8742;51.716;8.790;2022-11-04T02:31:54;2.40;;;1.30;;
17251;SDS011;8742;51.716;8.790;2022-11-04T02:34:30;2.53;;;1.07;;
17251;SDS011;8742;51.716;8.790;2022-11-04T02:37:06;2.40;;;1.20;;
17251;SDS011;8742;51.716;8.790;2022-11-04T02:39:42;1.60;;;1.17;;
17251;SDS011;8742;51.716;8.790;2022-11-04T02:42:18;1.47;;;0.90;;
17251;SDS011;8742;51.716;8.790;2022-11-04T02:44:54;1.50;;;1.13;;
17251;SDS011;8742;51.716;8.790;2022-11-04T02:47:29;1.47;;;1.37;;
17251;SDS011;8742;51.716;8.790;2022-11-04T02:49:58;2.13;;;0.80;;
17251;SDS011;8742;51.716;8.790;2022-11-04T02:52:31;1.43;;;1.03;;
17251;SDS011;8742;51.716;8.790;2022-11-04T02:55:03;1.27;;;1.17;;
17251;SDS011;8742;51.716;8.790;2022-11-04T02:57:34;1.10;;;0.70;;
17251;SDS011;8742;51.716;8.790;2022-11-04T03:00:04;1.60;;;0.80;;
17251;SDS011;8742;51.716;8.790;2022-11-04T03:02:34;1.47;;;0.70;;
17251;SDS011;8742;51.716;8.790;2022-11-04T03:05:05;0.97;;;0.97;;
17251;SDS011;8742;51.716;8.790;2022-11-04T03:07:37;1.90;;;0.97;;
17251;SDS011;8742;51.716;8.790;2022-11-04T03:10:08;1.10;;;1.00;;
17251;SDS011;8742;51.716;8.790;2022-11-04T03:12:39;1.47;;;1.07;;
17251;SDS011;8742;51.716;8.790;2022-11-04T03:15:14;1.20;;;1.10;;
17251;SDS011;8742;51.716;8.790;2022-11-04T03:17:46;5.93;;;1.23;;
17251;SDS011;8742;51.716;8.790;2022-11-04T03:20:20;2.77;;;1.00;;
17251;SDS011;8742;51.716;8.790;2022-11-04T03:22:49;1.20;;;1.03;;
17251;SDS011;8742;51.716;8.790;2022-11-04T03:25:19;1.93;;;1.07;;
17251;SDS011;8742;51.716;8.790;2022-11-04T03:27:51;1.60;;;1.17;;
17251;SDS011;8742;51.716;8.790;2022-11-04T03:30:25;1.33;;;1.10;;
17251;SDS011;8742;51.716;8.790;2022-11-04T03:32:56;6.83;;;1.37;;
17251;SDS011;8742;51.716;8.790;2022-11-04T03:35:28;1.20;;;1.10;;
17251;SDS011;8742;51.716;8.790;2022-11-04T03:37:55;1.90;;;1.60;;
17251;SDS011;8742;51.716;8.790;2022-11-04T03:40:23;1.70;;;1.53;;
17251;SDS011;8742;51.716;8.790;2022-11-04T03:42:51;1.40;;;1.23;;
17251;SDS011;8742;51.716;8.790;2022-11-04T03:45:22;2.00;;;1.30;;
17251;SDS011;8742;51.716;8.790;2022-11-04T03:47:51;2.20;;;1.17;;
17251;SDS011;8742;51.716;8.790;2022-11-04T03:50:19;2.93;;;1.70;;
17251;SDS011;8742;51.716;8.790;2022-11-04T03:52:50;3.33;;;1.73;;
17251;SDS011;8742;51.716;8.790;2022-11-04T03:55:17;3.07;;;2.03;;
17251;SDS011;8742;51.716;8.790;2022-11-04T03:57:47;1.90;;;1.80;;
17251;SDS011;8742;51.716;8.790;2022-11-04T04:00:17;5.17;;;2.30;;
17251;SDS011;8742;51.716;8.790;2022-11-04T04:02:57;3.33;;;1.87;;
17251;SDS011;8742;51.716;8.790;2022-11-04T04:05:27;2.80;;;2.10;;
17251;SDS011;8742;51.716;8.790;2022-11-04T04:07:58;3.30;;;2.20;;
17251;SDS011;8742;51.716;8.790;2022-11-04T04:10:35;2.77;;;2.20;;
17251;SDS011;8742;51.716;8.790;2022-11-04T04:13:07;2.67;;;1.70;;
17251;SDS011;8742;51.716;8.790;2022-11-04T04:15:42;3.53;;;2.07;;
17251;SDS011;8742;51.716;8.790;2022-11-04T04:18:14;2.40;;;2.20;;
17251;SDS011;8742;51.716;8.790;2022-11-04T04:20:45;4.23;;;2.43;;
17251;SDS011;8742;51.716;8.790;2022-11-04T04:23:14;4.03;;;2.67;;
17251;SDS011;8742;51.716;8.790;2022-11-04T04:26:02;2.03;;;1.87;;
17251;SDS011;8742;51.716;8.790;2022-11-04T04:28:49;2.10;;;1.90;;
17251;SDS011;8742;51.716;8.790;2022-11-04T04:31:19;4.03;;;2.03;;
17251;SDS011;8742;51.716;8.790;2022-11-04T04:34:02;4.50;;;2.40;;
17251;SDS011;8742;51.716;8.790;2022-11-04T04:36:29;6.27;;;2.50;;
17251;SDS011;8742;51.716;8.790;2022-11-04T04:39:01;2.20;;;1.90;;
17251;SDS011;8742;51.716;8.790;2022-11-04T04:41:47;2.53;;;2.33;;
17251;SDS011;8742;51.716;8.790;2022-11-04T04:44:31;2.90;;;2.17;;
17251;SDS011;8742;51.716;8.790;2022-11-04T04:47:17;3.37;;;1.90;;
17251;SDS011;8742;51.716;8.790;2022-11-04T04:49:52;3.90;;;2.77;;
17251;SDS011;8742;51.716;8.790;2022-11-04T04:52:19;2.80;;;2.27;;
17251;SDS011;8742;51.716;8.790;2022-11-04T04:54:48;3.33;;;2.03;;
17251;SDS011;8742;51.716;8.790;2022-11-04T04:57:15;3.20;;;2.10;;
17251;SDS011;8742;51.716;8.790;2022-11-04T04:59:42;4.77;;;3.03;;
17251;SDS011;8742;51.716;8.790;2022-11-04T05:02:09;4.30;;;2.80;;
17251;SDS011;8742;51.716;8.790;2022-11-04T05:04:35;5.07;;;2.97;;
17251;SDS011;8742;51.716;8.790;2022-11-04T05:07:04;4.17;;;2.70;;
17251;SDS011;8742;51.716;8.790;2022-11-04T05:09:32;9.67;;;2.70;;
17251;SDS011;8742;51.716;8.790;2022-11-04T05:11:58;5.30;;;2.83;;
17251;SDS011;8742;51.716;8.790;2022-11-04T05:14:25;5.03;;;2.70;;
17251;SDS011;8742;51.716;8.790;2022-11-04T05:16:52;9.37;;;2.73;;
17251;SDS011;8742;51.716;8.790;2022-11-04T05:19:19;7.07;;;3.20;;
17251;SDS011;8742;51.716;8.790;2022-11-04T05:21:46;24.13;;;13.77;;
17251;SDS011;8742;51.716;8.790;2022-11-04T05:24:14;13.63;;;6.00;;
17251;SDS011;8742;51.716;8.790;2022-11-04T05:26:41;6.73;;;4.17;;
17251;SDS011;8742;51.716;8.790;2022-11-04T05:29:08;8.07;;;3.27;;
17251;SDS011;8742;51.716;8.790;2022-11-04T05:31:36;6.87;;;2.63;;
17251;SDS011;8742;51.716;8.790;2022-11-04T05:34:03;4.27;;;2.70;;
17251;SDS011;8742;51.716;8.790;2022-11-04T05:36:30;6.67;;;3.00;;
17251;SDS011;8742;51.716;8.790;2022-11-04T05:38:58;4.97;;;2.70;;
17251;SDS011;8742;51.716;8.790;2022-11-04T05:41:26;4.70;;;2.93;;
17251;SDS011;8742;51.716;8.790;2022-11-04T05:43:53;8.20;;;3.10;;
17251;SDS011;8742;51.716;8.790;2022-11-04T05:46:20;4.23;;;2.60;;
17251;SDS011;8742;51.716;8.790;2022-11-04T05:48:47;4.57;;;3.20;;
17251;SDS011;8742;51.716;8.790;2022-11-04T05:51:15;3.40;;;2.73;;
17251;SDS011;8742;51.716;8.790;2022-11-04T05:53:43;7.57;;;2.70;;
17251;SDS011;8742;51.716;8.790;2022-11-04T05:56:10;7.20;;;3.20;;
17251;SDS011;8742;51.716;8.790;2022-11-04T05:58:38;5.73;;;2.40;;
17251;SDS011;8742;51.716;8.790;2022-11-04T06:01:22;6.83;;;2.70;;
17251;SDS011;8742;51.716;8.790;2022-11-04T06:03:54;10.10;;;2.70;;
17251;SDS011;8742;51.716;8.790;2022-11-04T06:06:22;6.17;;;2.80;;
17251;SDS011;8742;51.716;8.790;2022-11-04T06:08:50;4.83;;;2.77;;
17251;SDS011;8742;51.716;8.790;2022-11-04T06:11:17;5.80;;;2.63;;
17251;SDS011;8742;51.716;8.790;2022-11-04T06:13:47;7.07;;;2.60;;
17251;SDS011;8742;51.716;8.790;2022-11-04T06:16:14;10.50;;;3.10;;
17251;SDS011;8742;51.716;8.790;2022-11-04T06:18:41;7.53;;;3.07;;
17251;SDS011;8742;51.716;8.790;2022-11-04T06:21:09;7.50;;;3.20;;
17251;SDS011;8742;51.716;8.790;2022-11-04T06:23:45;8.20;;;2.47;;
17251;SDS011;8742;51.716;8.790;2022-11-04T06:26:12;10.33;;;2.50;;
17251;SDS011;8742;51.716;8.790;2022-11-04T06:28:39;7.57;;;2.60;;
17251;SDS011;8742;51.716;8.790;2022-11-04T06:31:07;6.60;;;2.10;;
17251;SDS011;8742;51.716;8.790;2022-11-04T06:33:36;4.97;;;2.43;;
17251;SDS011;8742;51.716;8.790;2022-11-04T06:36:04;7.70;;;2.40;;
17251;SDS011;8742;51.716;8.790;2022-11-04T06:38:33;6.07;;;2.03;;
17251;SDS011;8742;51.716;8.790;2022-11-04T06:41:01;6.23;;;2.47;;
17251;SDS011;8742;51.716;8.790;2022-11-04T06:43:28;7.77;;;2.60;;
17251;SDS011;8742;51.716;8.790;2022-11-04T06:45:55;13.63;;;2.73;;
17251;SDS011;8742;51.716;8.790;2022-11-04T06:48:24;7.57;;;2.13;;
17251;SDS011;8742;51.716;8.790;2022-11-04T06:50:51;5.90;;;2.20;;
17251;SDS011;8742;51.716;8.790;2022-11-04T06:53:18;8.20;;;2.47;;
17251;SDS011;8742;51.716;8.790;2022-11-04T06:55:45;5.83;;;2.70;;
17251;SDS011;8742;51.716;8.790;2022-11-04T06:58:12;14.47;;;2.17;;
17251;SDS011;8742;51.716;8.790;2022-11-04T07:00:38;9.43;;;2.53;;
17251;SDS011;8742;51.716;8.790;2022-11-04T07:03:05;5.40;;;2.53;;
17251;SDS011;8742;51.716;8.790;2022-11-04T07:05:34;10.67;;;2.30;;
17251;SDS011;8742;51.716;8.790;2022-11-04T07:08:01;7.63;;;2.90;;
17251;SDS011;8742;51.716;8.790;2022-11-04T07:10:28;4.93;;;2.50;;
17251;SDS011;8742;51.716;8.790;2022-11-04T07:12:54;6.03;;;2.30;;
17251;SDS011;8742;51.716;8.790;2022-11-04T07:15:21;6.13;;;2.07;;
17251;SDS011;8742;51.716;8.790;2022-11-04T07:17:48;12.13;;;2.63;;
17251;SDS011;8742;51.716;8.790;2022-11-04T07:20:15;7.30;;;2.60;;
17251;SDS011;8742;51.716;8.790;2022-11-04T07:22:43;5.90;;;2.50;;
17251;SDS011;8742;51.716;8.790;2022-11-04T07:25:10;5.07;;;2.07;;
17251;SDS011;8742;51.716;8.790;2022-11-04T07:27:37;7.60;;;2.30;;
17251;SDS011;8742;51.716;8.790;2022-11-04T07:30:04;21.07;;;2.60;;
17251;SDS011;8742;51.716;8.790;2022-11-04T07:32:32;10.40;;;3.10;;
17251;SDS011;8742;51.716;8.790;2022-11-04T07:34:58;8.70;;;2.87;;
17251;SDS011;8742;51.716;8.790;2022-11-04T07:37:25;6.47;;;3.37;;
17251;SDS011;8742;51.716;8.790;2022-11-04T07:39:53;10.30;;;3.23;;
17251;SDS011;8742;51.716;8.790;2022-11-04T07:42:20;4.63;;;2.23;;
17251;SDS011;8742;51.716;8.790;2022-11-04T07:44:47;12.13;;;2.63;;
17251;SDS011;8742;51.716;8.790;2022-11-04T07:47:14;8.73;;;2.53;;
17251;SDS011;8742;51.716;8.790;2022-11-04T07:49:41;14.63;;;2.97;;
17251;SDS011;8742;51.716;8.790;2022-11-04T07:52:08;12.30;;;2.97;;
17251;SDS011;8742;51.716;8.790;2022-11-04T07:54:35;8.33;;;2.90;;
17251;SDS011;8742;51.716;8.790;2022-11-04T07:57:03;8.03;;;2.40;;
17251;SDS011;8742;51.716;8.790;2022-11-04T07:59:30;9.20;;;2.57;;
17251;SDS011;8742;51.716;8.790;2022-11-04T08:01:57;7.00;;;2.60;;
17251;SDS011;8742;51.716;8.790;2022-11-04T08:04:24;10.50;;;2.80;;
17251;SDS011;8742;51.716;8.790;2022-11-04T08:06:51;7.17;;;3.27;;
17251;SDS011;8742;51.716;8.790;2022-11-04T08:09:18;4.70;;;2.63;;
17251;SDS011;8742;51.716;8.790;2022-11-04T08:11:45;5.67;;;2.27;;
17251;SDS011;8742;51.716;8.790;2022-11-04T08:14:14;9.30;;;2.70;;
17251;SDS011;8742;51.716;8.790;2022-11-04T08:16:41;12.00;;;2.37;;
17251;SDS011;8742;51.716;8.790;2022-11-04T08:19:08;10.93;;;2.20;;
17251;SDS011;8742;51.716;8.790;2022-11-04T08:21:35;8.43;;;2.40;;
17251;SDS011;8742;51.716;8.790;2022-11-04T08:24:02;7.57;;;3.03;;
17251;SDS011;8742;51.716;8.790;2022-11-04T08:26:30;6.63;;;2.43;;
17251;SDS011;8742;51.716;8.790;2022-11-04T08:28:57;10.47;;;2.37;;
17251;SDS011;8742;51.716;8.790;2022-11-04T08:31:27;5.43;;;2.20;;
17251;SDS011;8742;51.716;8.790;2022-11-04T08:33:55;11.03;;;2.10;;
17251;SDS011;8742;51.716;8.790;2022-11-04T08:36:23;4.37;;;2.40;;
17251;SDS011;8742;51.716;8.790;2022-11-04T08:38:52;3.50;;;2.20;;
17251;SDS011;8742;51.716;8.790;2022-11-04T08:41:20;15.70;;;2.47;;
17251;SDS011;8742;51.716;8.790;2022-11-04T08:43:49;9.13;;;2.03;;
17251;SDS011;8742;51.716;8.790;2022-11-04T08:46:16;4.93;;;1.93;;
17251;SDS011;8742;51.716;8.790;2022-11-04T08:48:45;5.43;;;2.07;;
17251;SDS011;8742;51.716;8.790;2022-11-04T08:51:14;4.27;;;2.00;;
17251;SDS011;8742;51.716;8.790;2022-11-04T08:53:43;6.03;;;2.03;;
17251;SDS011;8742;51.716;8.790;2022-11-04T08:56:11;11.50;;;2.43;;
17251;SDS011;8742;51.716;8.790;2022-11-04T08:58:39;6.77;;;2.10;;
17251;SDS011;8742;51.716;8.790;2022-11-04T09:01:06;7.13;;;2.00;;
17251;SDS011;8742;51.716;8.790;2022-11-04T09:03:35;3.50;;;1.63;;
17251;SDS011;8742;51.716;8.790;2022-11-04T09:06:04;8.13;;;2.47;;
17251;SDS011;8742;51.716;8.790;2022-11-04T09:08:31;5.87;;;1.70;;
17251;SDS011;8742;51.716;8.790;2022-11-04T09:10:58;6.93;;;2.03;;
17251;SDS011;8742;51.716;8.790;2022-11-04T09:13:25;6.33;;;2.10;;
17251;SDS011;8742;51.716;8.790;2022-11-04T09:15:52;5.40;;;2.40;;
17251;SDS011;8742;51.716;8.790;2022-11-04T09:18:19;4.63;;;1.90;;
17251;SDS011;8742;51.716;8.790;2022-11-04T09:20:46;6.30;;;2.00;;
17251;SDS011;8742;51.716;8.790;2022-11-04T09:23:14;2.73;;;1.73;;
17251;SDS011;8742;51.716;8.790;2022-11-04T09:25:41;5.27;;;1.90;;
17251;SDS011;8742;51.716;8.790;2022-11-04T09:28:08;5.47;;;1.90;;
17251;SDS011;8742;51.716;8.790;2022-11-04T09:30:35;4.37;;;2.00;;
17251;SDS011;8742;51.716;8.790;2022-11-04T09:33:02;5.17;;;1.50;;
17251;SDS011;8742;51.716;8.790;2022-11-04T09:35:29;6.77;;;2.30;;
17251;SDS011;8742;51.716;8.790;2022-11-04T09:37:57;9.70;;;2.10;;
17251;SDS011;8742;51.716;8.790;2022-11-04T09:40:26;6.90;;;2.20;;
17251;SDS011;8742;51.716;8.790;2022-11-04T09:42:56;6.67;;;2.13;;
17251;SDS011;8742;51.716;8.790;2022-11-04T09:45:33;4.17;;;1.80;;
17251;SDS011;8742;51.716;8.790;2022-11-04T09:48:05;7.70;;;2.03;;
17251;SDS011;8742;51.716;8.790;2022-11-04T09:50:39;6.07;;;2.20;;
17251;SDS011;8742;51.716;8.790;2022-11-04T09:53:12;13.33;;;2.10;;
17251;SDS011;8742;51.716;8.790;2022-11-04T09:55:45;6.93;;;1.67;;
17251;SDS011;8742;51.716;8.790;2022-11-04T09:58:16;3.90;;;1.57;;
17251;SDS011;8742;51.716;8.790;2022-11-04T10:00:43;10.27;;;2.23;;
17251;SDS011;8742;51.716;8.790;2022-11-04T10:03:16;5.37;;;1.77;;
17251;SDS011;8742;51.716;8.790;2022-11-04T10:05:59;5.77;;;2.00;;
17251;SDS011;8742;51.716;8.790;2022-11-04T10:08:40;9.43;;;2.17;;
17251;SDS011;8742;51.716;8.790;2022-11-04T10:11:27;9.97;;;2.53;;
17251;SDS011;8742;51.716;8.790;2022-11-04T10:14:08;5.00;;;2.03;;
17251;SDS011;8742;51.716;8.790;2022-11-04T10:16:49;4.87;;;1.77;;
17251;SDS011;8742;51.716;8.790;2022-11-04T10:19:30;5.93;;;1.80;;
17251;SDS011;8742;51.716;8.790;2022-11-04T10:22:09;8.27;;;2.03;;
17251;SDS011;8742;51.716;8.790;2022-11-04T10:24:46;7.93;;;2.30;;
17251;SDS011;8742;51.716;8.790;2022-11-04T10:27:20;5.73;;;1.83;;
17251;SDS011;8742;51.716;8.790;2022-11-04T10:29:51;6.40;;;1.53;;
17251;SDS011;8742;51.716;8.790;2022-11-04T10:32:23;9.90;;;2.30;;
17251;SDS011;8742;51.716;8.790;2022-11-04T10:34:55;5.50;;;2.03;;
17251;SDS011;8742;51.716;8.790;2022-11-04T10:37:24;8.23;;;2.30;;
17251;SDS011;8742;51.716;8.790;2022-11-04T10:39:54;5.87;;;2.60;;
17251;SDS011;8742;51.716;8.790;2022-11-04T10:42:27;9.17;;;2.27;;
17251;SDS011;8742;51.716;8.790;2022-11-04T10:44:54;6.63;;;2.10;;
17251;SDS011;8742;51.716;8.790;2022-11-04T10:47:24;5.97;;;2.07;;
17251;SDS011;8742;51.716;8.790;2022-11-04T10:50:07;9.23;;;2.03;;
17251;SDS011;8742;51.716;8.790;2022-11-04T10:52:51;7.30;;;1.87;;
17251;SDS011;8742;51.716;8.790;2022-11-04T10:55:25;6.30;;;2.33;;
17251;SDS011;8742;51.716;8.790;2022-11-04T10:57:59;10.63;;;2.77;;
17251;SDS011;8742;51.716;8.790;2022-11-04T11:00:33;8.00;;;2.50;;
17251;SDS011;8742;51.716;8.790;2022-11-04T11:03:02;15.40;;;2.50;;
17251;SDS011;8742;51.716;8.790;2022-11-04T11:05:29;6.63;;;2.27;;
17251;SDS011;8742;51.716;8.790;2022-11-04T11:07:56;6.17;;;2.30;;
17251;SDS011;8742;51.716;8.790;2022-11-04T11:10:23;3.97;;;1.90;;
17251;SDS011;8742;51.716;8.790;2022-11-04T11:12:53;5.33;;;2.23;;
17251;SDS011;8742;51.716;8.790;2022-11-04T11:15:28;4.83;;;2.20;;
17251;SDS011;8742;51.716;8.790;2022-11-04T11:17:59;12.30;;;3.77;;
17251;SDS011;8742;51.716;8.790;2022-11-04T11:20:40;10.73;;;2.43;;
17251;SDS011;8742;51.716;8.790;2022-11-04T11:26:01;7.83;;;2.53;;
17251;SDS011;8742;51.716;8.790;2022-11-04T11:28:28;13.03;;;2.77;;
17251;SDS011;8742;51.716;8.790;2022-11-04T11:31:03;12.63;;;2.70;;
17251;SDS011;8742;51.716;8.790;2022-11-04T11:33:37;7.97;;;2.73;;
17251;SDS011;8742;51.716;8.790;2022-11-04T11:36:14;5.80;;;2.03;;
17251;SDS011;8742;51.716;8.790;2022-11-04T11:38:52;10.20;;;2.60;;
17251;SDS011;8742;51.716;8.790;2022-11-04T11:41:25;3.77;;;2.03;;
17251;SDS011;8742;51.716;8.790;2022-11-04T11:43:57;13.00;;;2.80;;
17251;SDS011;8742;51.716;8.790;2022-11-04T11:46:28;12.67;;;2.83;;
17251;SDS011;8742;51.716;8.790;2022-11-04T11:48:58;5.87;;;2.40;;
17251;SDS011;8742;51.716;8.790;2022-11-04T11:51:27;8.93;;;2.30;;
17251;SDS011;8742;51.716;8.790;2022-11-04T11:56:43;9.17;;;3.43;;
17251;SDS011;8742;51.716;8.790;2022-11-04T11:59:15;8.40;;;2.50;;
17251;SDS011;8742;51.716;8.790;2022-11-04T12:01:51;8.53;;;2.20;;
17251;SDS011;8742;51.716;8.790;2022-11-04T12:04:26;8.40;;;2.10;;
17251;SDS011;8742;51.716;8.790;2022-11-04T12:06:54;5.87;;;2.40;;
17251;SDS011;8742;51.716;8.790;2022-11-04T12:09:31;6.53;;;2.80;;
17251;SDS011;8742;51.716;8.790;2022-11-04T12:12:09;5.30;;;2.03;;
17251;SDS011;8742;51.716;8.790;2022-11-04T12:14:47;10.23;;;2.53;;
17251;SDS011;8742;51.716;8.790;2022-11-04T12:17:27;7.50;;;2.20;;
17251;SDS011;8742;51.716;8.790;2022-11-04T12:20:09;8.90;;;2.27;;
17251;SDS011;8742;51.716;8.790;2022-11-04T12:22:49;7.70;;;2.30;;
17251;SDS011;8742;51.716;8.790;2022-11-04T12:25:22;6.00;;;2.60;;
17251;SDS011;8742;51.716;8.790;2022-11-04T12:27:56;8.80;;;2.70;;
17251;SDS011;8742;51.716;8.790;2022-11-04T12:30:28;6.50;;;2.27;;
17251;SDS011;8742;51.716;8.790;2022-11-04T12:33:08;10.23;;;2.37;;
17251;SDS011;8742;51.716;8.790;2022-11-04T12:35:53;9.93;;;3.00;;
17251;SDS011;8742;51.716;8.790;2022-11-04T12:38:48;8.37;;;2.97;;
17251;SDS011;8742;51.716;8.790;2022-11-04T12:41:25;11.93;;;2.47;;
17251;SDS011;8742;51.716;8.790;2022-11-04T12:44:01;6.40;;;2.57;;
17251;SDS011;8742;51.716;8.790;2022-11-04T12:46:36;9.63;;;2.40;;
17251;SDS011;8742;51.716;8.790;2022-11-04T12:49:12;7.03;;;2.50;;
17251;SDS011;8742;51.716;8.790;2022-11-04T12:52:01;7.37;;;2.70;;
17251;SDS011;8742;51.716;8.790;2022-11-04T12:54:39;5.60;;;2.47;;
17251;SDS011;8742;51.716;8.790;2022-11-04T12:57:18;11.87;;;2.90;;
17251;SDS011;8742;51.716;8.790;2022-11-04T12:59:54;9.30;;;2.80;;
17251;SDS011;8742;51.716;8.790;2022-11-04T13:02:31;6.40;;;2.67;;
17251;SDS011;8742;51.716;8.790;2022-11-04T13:05:06;7.83;;;2.63;;
17251;SDS011;8742;51.716;8.790;2022-11-04T13:07:42;8.87;;;2.87;;
17251;SDS011;8742;51.716;8.790;2022-11-04T13:10:16;5.53;;;2.43;;
17251;SDS011;8742;51.716;8.790;2022-11-04T13:12:47;12.33;;;2.60;;
17251;SDS011;8742;51.716;8.790;2022-11-04T13:15:18;7.83;;;2.37;;
17251;SDS011;8742;51.716;8.790;2022-11-04T13:17:48;13.03;;;2.50;;
17251;SDS011;8742;51.716;8.790;2022-11-04T13:20:21;5.83;;;2.50;;
17251;SDS011;8742;51.716;8.790;2022-11-04T13:22:56;9.70;;;2.83;;
17251;SDS011;8742;51.716;8.790;2022-11-04T13:25:26;7.73;;;3.33;;
17251;SDS011;8742;51.716;8.790;2022-11-04T13:27:55;6.57;;;2.83;;
17251;SDS011;8742;51.716;8.790;2022-11-04T13:30:26;12.17;;;2.70;;
17251;SDS011;8742;51.716;8.790;2022-11-04T13:33:01;8.80;;;3.33;;
17251;SDS011;8742;51.716;8.790;2022-11-04T13:35:40;7.37;;;3.03;;
17251;SDS011;8742;51.716;8.790;2022-11-04T13:38:15;10.13;;;2.73;;
17251;SDS011;8742;51.716;8.790;2022-11-04T13:40:50;9.03;;;2.87;;
17251;SDS011;8742;51.716;8.790;2022-11-04T13:43:23;7.13;;;2.60;;
17251;SDS011;8742;51.716;8.790;2022-11-04T13:46:14;11.93;;;3.27;;
17251;SDS011;8742;51.716;8.790;2022-11-04T13:48:52;10.33;;;2.63;;
17251;SDS011;8742;51.716;8.790;2022-11-04T13:51:33;7.90;;;2.73;;
17251;SDS011;8742;51.716;8.790;2022-11-04T13:54:03;8.30;;;3.00;;
17251;SDS011;8742;51.716;8.790;2022-11-04T13:56:32;7.10;;;2.47;;
17251;SDS011;8742;51.716;8.790;2022-11-04T13:59:02;7.70;;;3.10;;
17251;SDS011;8742;51.716;8.790;2022-11-04T14:01:33;9.70;;;2.53;;
17251;SDS011;8742;51.716;8.790;2022-11-04T14:04:02;9.40;;;3.23;;
17251;SDS011;8742;51.716;8.790;2022-11-04T14:06:51;8.53;;;2.77;;
17251;SDS011;8742;51.716;8.790;2022-11-04T14:12:32;11.60;;;2.73;;
17251;SDS011;8742;51.716;8.790;2022-11-04T14:15:06;6.30;;;2.47;;
17251;SDS011;8742;51.716;8.790;2022-11-04T14:18:01;8.63;;;2.73;;
17251;SDS011;8742;51.716;8.790;2022-11-04T14:20:30;12.17;;;2.97;;
17251;SDS011;8742;51.716;8.790;2022-11-04T14:23:00;9.33;;;3.20;;
17251;SDS011;8742;51.716;8.790;2022-11-04T14:25:29;8.97;;;3.00;;
17251;SDS011;8742;51.716;8.790;2022-11-04T14:28:02;6.43;;;2.40;;
17251;SDS011;8742;51.716;8.790;2022-11-04T14:30:47;8.30;;;2.50;;
17251;SDS011;8742;51.716;8.790;2022-11-04T14:39:01;7.77;;;2.43;;
17251;SDS011;8742;51.716;8.790;2022-11-04T14:44:30;8.23;;;2.30;;
17251;SDS011;8742;51.716;8.790;2022-11-04T14:47:00;11.13;;;3.00;;
17251;SDS011;8742;51.716;8.790;2022-11-04T14:49:45;6.10;;;2.60;;
17251;SDS011;8742;51.716;8.790;2022-11-04T14:52:15;11.97;;;2.83;;
17251;SDS011;8742;51.716;8.790;2022-11-04T14:54:49;11.13;;;2.83;;
17251;SDS011;8742;51.716;8.790;2022-11-04T14:57:21;11.50;;;3.20;;
17251;SDS011;8742;51.716;8.790;2022-11-04T14:59:48;10.07;;;3.33;;
17251;SDS011;8742;51.716;8.790;2022-11-04T15:02:17;9.20;;;3.27;;
17251;SDS011;8742;51.716;8.790;2022-11-04T15:04:47;7.50;;;3.30;;
17251;SDS011;8742;51.716;8.790;2022-11-04T15:07:23;9.23;;;3.33;;
17251;SDS011;8742;51.716;8.790;2022-11-04T15:09:59;9.27;;;3.37;;
17251;SDS011;8742;51.716;8.790;2022-11-04T15:12:29;12.67;;;3.73;;
17251;SDS011;8742;51.716;8.790;2022-11-04T15:15:27;9.43;;;3.03;;
17251;SDS011;8742;51.716;8.790;2022-11-04T15:18:00;6.17;;;2.70;;
17251;SDS011;8742;51.716;8.790;2022-11-04T15:20:30;11.07;;;3.47;;
17251;SDS011;8742;51.716;8.790;2022-11-04T15:23:12;9.33;;;3.37;;
17251;SDS011;8742;51.716;8.790;2022-11-04T15:25:46;8.13;;;3.17;;
17251;SDS011;8742;51.716;8.790;2022-11-04T15:28:16;7.07;;;3.13;;
17251;SDS011;8742;51.716;8.790;2022-11-04T15:30:51;7.00;;;3.30;;
17251;SDS011;8742;51.716;8.790;2022-11-04T15:33:26;12.70;;;3.37;;
17251;SDS011;8742;51.716;8.790;2022-11-04T15:35:54;10.90;;;3.50;;
17251;SDS011;8742;51.716;8.790;2022-11-04T15:38:22;19.00;;;4.13;;
17251;SDS011;8742;51.716;8.790;2022-11-04T15:40:53;7.20;;;3.30;;
17251;SDS011;8742;51.716;8.790;2022-11-04T15:43:41;9.23;;;4.23;;
17251;SDS011;8742;51.716;8.790;2022-11-04T15:46:13;10.07;;;3.93;;
17251;SDS011;8742;51.716;8.790;2022-11-04T15:48:42;10.73;;;3.90;;